Time;durP1;ratioP1;P1;durP2;ratioP2;P2;SDS_P1;SDS_P2;PMS_P1;PMS_P2;Temp;Humidity;BMP_temperature;BMP_pressure;BME280_temperature;BME280_humidity;BME280_pressure;Samples;Min_cycle;Max_cycle;Signal;HPM_P1;HPM_P2
2021/01/07 00:49:01;;;;;;;7.33;4.90;;;2.30;99.90;;;;;;6151010;22;389622;31
2021/01/07 01:06:07;;;;;;;6.55;4.38;;;2.40;99.90;;;;;;6355775;22;20213;31
2021/01/07 01:23:12;;;;;;;6.03;3.88;;;2.30;99.90;;;;;;6339010;22;389901;31
2021/01/07 01:32:56;;;;;;;5.25;3.90;;;2.30;99.90;;;;;;6357562;22;20210;31
2021/01/07 01:35:22;;;;;;;8.20;4.90;;;2.20;99.90;;;;;;6340173;22;405223;31
2021/01/07 02:51:55;;;;;;;9.60;5.80;;;2.40;99.90;;;;;;6222780;22;20220;-56
2021/01/07 03:23:25;;;;;;;10.38;6.03;;;2.40;99.90;;;;;;6206706;22;391915;31
2021/01/07 03:28:15;;;;;;;8.30;5.28;;;2.40;99.90;;;;;;6208588;22;401244;31
2021/01/07 03:33:06;;;;;;;10.25;5.43;;;2.40;99.90;;;;;;6224184;22;20711;31
2021/01/07 03:47:46;;;;;;;8.80;5.18;;;2.30;99.90;;;;;;6209791;22;387514;31
2021/01/07 03:50:11;;;;;;;9.02;5.55;;;2.30;99.90;;;;;;6224348;22;21121;31
2021/01/07 04:33:48;;;;;;;8.50;5.28;;;2.20;99.90;;;;;;6217350;22;20214;31
2021/01/07 05:15:33;;;;;;;11.63;6.20;;;2.20;99.90;;;;;;6159953;22;396544;31
2021/01/07 05:20:24;;;;;;;9.60;6.40;;;2.20;99.90;;;;;;6177603;22;22412;31
2021/01/07 05:37:24;;;;;;;12.20;6.43;;;2.20;99.90;;;;;;6180685;22;20206;31
2021/01/07 05:51:05;;;;;;;10.93;6.05;;;2.20;99.90;;;;;;6295535;22;20988;31
2021/01/07 05:55:56;;;;;;;12.07;6.80;;;2.20;99.90;;;;;;6307038;22;20284;31
2021/01/07 05:59:26;;;;;;;12.75;6.63;;;2.20;99.90;;;;;;6197554;22;20985;31
2021/01/07 06:16:36;;;;;;;14.35;6.85;;;2.20;99.90;;;;;;6256728;22;20197;31
2021/01/07 06:43:18;;;;;;;14.90;7.22;;;2.30;99.90;;;;;;6271496;22;20417;31
2021/01/07 06:50:35;;;;;;;14.55;7.53;;;2.30;99.90;;;;;;6274328;22;20182;31
2021/01/07 06:53:01;;;;;;;15.25;7.85;;;2.30;99.90;;;;;;6274621;22;20182;31
2021/01/07 07:05:11;;;;;;;18.23;8.02;;;2.30;99.90;;;;;;6277847;22;20178;31
2021/01/07 07:44:01;;;;;;;21.50;7.75;;;2.40;99.90;;;;;;6218225;22;20210;-62
2021/01/07 08:19:40;;;;;;;12.13;6.57;;;2.70;99.90;;;;;;6180688;22;403330;31
2021/01/07 08:40:54;;;;;;;12.88;6.38;;;3.00;99.90;;;;;;6207004;22;20268;31
2021/01/07 08:45:49;;;;;;;9.48;6.10;;;3.00;99.90;;;;;;6202978;22;20207;31
2021/01/07 08:50:50;;;;;;;11.73;6.22;;;3.10;99.90;;;;;;6168724;22;20976;-61
2021/01/07 08:53:14;;;;;;;10.75;6.78;;;3.10;99.90;;;;;;6144904;23;20234;31
2021/01/07 08:58:05;;;;;;;9.35;5.63;;;3.10;99.90;;;;;;6145650;23;22413;-56
2021/01/07 09:51:27;;;;;;;8.55;5.30;;;3.50;99.90;;;;;;6127656;23;399859;-62
2021/01/07 10:02:56;;;;;;;8.43;5.10;;;3.40;99.90;;;;;;6260917;22;20200;-62
2021/01/07 10:15:30;;;;;;;7.50;4.57;;;3.50;99.90;;;;;;6260425;22;20197;31
2021/01/07 10:17:55;;;;;;;7.05;4.40;;;3.50;99.90;;;;;;6260503;22;20197;31
2021/01/07 10:26:35;;;;;;;7.78;4.40;;;3.60;99.90;;;;;;6127575;23;314189;31
2021/01/07 10:29:00;;;;;;;7.07;4.13;;;3.60;99.90;;;;;;6145128;23;20239;31
2021/01/07 11:07:14;;;;;;;5.45;3.58;;;3.80;99.90;;;;;;6296694;22;20531;-58
2021/01/07 11:53:19;;;;;;;7.78;3.88;;;4.20;99.90;;;;;;6308199;22;387299;-57
2021/01/07 12:24:09;;;;;;;7.28;4.28;;;4.20;99.90;;;;;;6187118;22;390010;31
2021/01/07 13:01:04;;;;;;;6.53;4.43;;;3.90;99.90;;;;;;6259014;22;20203;31
2021/01/07 13:22:10;;;;;;;7.18;4.50;;;3.40;99.90;;;;;;6288607;22;20204;31
2021/01/07 13:53:48;;;;;;;10.48;6.57;;;3.70;99.90;;;;;;6290110;22;20227;31
2021/01/07 14:15:44;;;;;;;8.98;5.07;;;3.70;99.90;;;;;;6291039;22;20205;31
2021/01/07 14:26:29;;;;;;;9.98;5.03;;;3.70;99.90;;;;;;6229204;22;20543;31
2021/01/07 15:19:14;;;;;;;7.78;4.82;;;3.10;99.90;;;;;;6256224;22;20260;-57
2021/01/07 17:27:36;;;;;;;10.25;6.22;;;2.40;99.90;;;;;;6249123;22;20192;-58
2021/01/07 17:30:04;;;;;;;9.30;5.63;;;2.40;99.90;;;;;;6248743;22;20140;-58
2021/01/07 17:32:30;;;;;;;9.10;5.60;;;2.40;99.90;;;;;;6248629;22;20458;-58
2021/01/07 17:34:55;;;;;;;8.55;5.65;;;2.30;99.90;;;;;;6248409;22;20590;-58
2021/01/07 17:37:21;;;;;;;7.68;5.55;;;2.40;99.90;;;;;;6248200;22;20631;-58
2021/01/07 17:39:46;;;;;;;9.73;6.03;;;2.30;99.90;;;;;;6248136;22;20208;-58
2021/01/07 17:42:12;;;;;;;10.80;6.28;;;2.30;99.90;;;;;;6248099;22;20553;-58
2021/01/07 17:44:39;;;;;;;9.02;5.78;;;2.30;99.90;;;;;;6248514;22;20542;-58
2021/01/07 17:47:10;;;;;;;12.02;6.07;;;2.30;99.90;;;;;;6248889;22;20150;-58
2021/01/07 17:49:36;;;;;;;10.90;6.75;;;2.30;99.90;;;;;;6248414;22;20140;-58
2021/01/07 17:52:04;;;;;;;11.05;6.90;;;2.40;99.90;;;;;;6248744;22;20230;-57
2021/01/07 17:54:29;;;;;;;10.80;6.15;;;2.40;99.90;;;;;;6248627;22;20140;-58
2021/01/07 17:56:55;;;;;;;11.10;6.32;;;2.40;99.90;;;;;;6248420;22;20147;-57
2021/01/07 17:59:21;;;;;;;11.32;6.68;;;2.40;99.90;;;;;;6248681;22;20159;-58
2021/01/07 18:01:46;;;;;;;9.10;6.22;;;2.30;99.90;;;;;;6248883;22;20175;-57
2021/01/07 18:04:12;;;;;;;9.07;6.00;;;2.30;99.90;;;;;;6248293;22;20151;-58
2021/01/07 18:06:39;;;;;;;11.88;6.68;;;2.30;99.90;;;;;;6248564;22;20198;-58
2021/01/07 18:09:06;;;;;;;10.98;6.30;;;2.30;99.90;;;;;;6248412;22;20178;-58
2021/01/07 18:11:31;;;;;;;11.10;6.03;;;2.30;99.90;;;;;;6248615;22;20140;-58
2021/01/07 18:13:57;;;;;;;12.27;6.93;;;2.30;99.90;;;;;;6248378;22;20207;-57
2021/01/07 18:16:22;;;;;;;12.65;7.15;;;2.30;99.90;;;;;;6248561;22;20148;-58
2021/01/07 18:18:48;;;;;;;12.05;6.90;;;2.30;99.90;;;;;;6248296;22;20889;-58
2021/01/07 18:21:14;;;;;;;11.60;6.78;;;2.30;99.90;;;;;;6248259;22;20611;-58
2021/01/07 18:23:40;;;;;;;11.93;7.00;;;2.30;99.90;;;;;;6248140;22;20148;-58
2021/01/07 18:26:05;;;;;;;9.23;6.50;;;2.30;99.90;;;;;;6247778;22;20178;-58
2021/01/07 18:28:31;;;;;;;11.50;6.55;;;2.30;99.90;;;;;;6246916;22;20148;-57
2021/01/07 18:30:57;;;;;;;12.25;7.10;;;2.30;99.90;;;;;;6246871;22;20206;-58
2021/01/07 18:33:22;;;;;;;11.02;6.10;;;2.30;99.90;;;;;;6247226;22;20172;-57
2021/01/07 18:35:48;;;;;;;13.18;7.65;;;2.40;99.90;;;;;;6246876;22;20219;-58
2021/01/07 18:38:14;;;;;;;13.48;6.93;;;2.40;99.90;;;;;;6245768;23;20254;-58
2021/01/07 18:40:39;;;;;;;12.13;6.57;;;2.40;99.90;;;;;;6247115;22;20151;-58
2021/01/07 18:43:05;;;;;;;12.13;7.03;;;2.30;99.90;;;;;;6272008;22;20144;-58
2021/01/07 18:45:30;;;;;;;10.95;6.65;;;2.30;99.90;;;;;;6247114;22;20150;-57
2021/01/07 18:47:56;;;;;;;13.23;7.30;;;2.30;99.90;;;;;;6246361;22;20144;-58
2021/01/07 18:50:21;;;;;;;12.13;6.82;;;2.30;99.90;;;;;;6246707;22;20192;-58
2021/01/07 18:52:47;;;;;;;12.07;6.78;;;2.30;99.90;;;;;;6246780;22;20202;-57
2021/01/07 18:55:12;;;;;;;10.88;6.05;;;2.30;99.90;;;;;;6246835;22;20144;-58
2021/01/07 18:57:38;;;;;;;8.45;5.53;;;2.30;99.90;;;;;;6247473;22;20149;-58
2021/01/07 19:00:05;;;;;;;10.95;5.78;;;2.30;99.90;;;;;;6246736;22;20541;-58
2021/01/07 19:02:33;;;;;;;15.52;6.20;;;2.40;99.90;;;;;;6246467;22;20155;-58
2021/01/07 19:04:59;;;;;;;11.75;6.10;;;2.40;99.90;;;;;;6246720;22;20159;-58
2021/01/07 19:07:26;;;;;;;8.85;4.90;;;2.40;99.90;;;;;;6246446;22;20148;-58
2021/01/07 19:09:51;;;;;;;8.95;5.15;;;2.30;99.90;;;;;;6246610;22;20159;-57
2021/01/07 19:12:17;;;;;;;8.18;4.88;;;2.30;99.90;;;;;;6246237;22;20243;-58
2021/01/07 19:14:42;;;;;;;8.00;4.35;;;2.30;99.90;;;;;;6246389;22;20151;-58
2021/01/07 19:17:08;;;;;;;8.82;4.82;;;2.20;99.90;;;;;;6246818;22;20540;-58
2021/01/07 19:19:33;;;;;;;8.55;4.57;;;2.20;99.90;;;;;;6246757;22;20143;-58
2021/01/07 19:21:59;;;;;;;10.38;5.30;;;2.30;99.90;;;;;;6246502;22;20227;-58
2021/01/07 19:24:24;;;;;;;7.15;4.45;;;2.30;99.90;;;;;;6246707;22;20141;-58
2021/01/07 19:26:53;;;;;;;7.45;4.38;;;2.30;99.90;;;;;;6203096;22;660241;-59
2021/01/07 19:29:19;;;;;;;6.70;4.28;;;2.30;99.90;;;;;;6217378;23;20613;-58
2021/01/07 19:31:45;;;;;;;6.55;3.95;;;2.30;99.90;;;;;;6217319;23;20191;-58
2021/01/07 19:34:10;;;;;;;7.65;4.97;;;2.30;99.90;;;;;;6217711;23;20228;-58
2021/01/07 19:36:37;;;;;;;7.82;4.63;;;2.30;99.90;;;;;;6217429;23;20195;-58
2021/01/07 19:39:04;;;;;;;9.02;4.35;;;2.30;99.90;;;;;;6217688;23;20157;-58
2021/01/07 19:41:29;;;;;;;6.85;4.60;;;2.30;99.90;;;;;;6217635;23;20141;-58
2021/01/07 19:43:56;;;;;;;6.53;4.03;;;2.20;99.90;;;;;;6219025;23;20176;-57
2021/01/07 19:46:22;;;;;;;7.00;4.28;;;2.20;99.90;;;;;;6218035;23;20167;-57
2021/01/07 19:48:47;;;;;;;7.57;4.35;;;2.10;99.90;;;;;;6217611;23;20145;-58
2021/01/07 19:51:13;;;;;;;7.20;4.22;;;2.10;99.90;;;;;;6217233;23;20219;-58
2021/01/07 19:53:38;;;;;;;9.52;4.70;;;2.10;99.90;;;;;;6216067;23;20211;-58
2021/01/07 19:56:04;;;;;;;7.80;4.32;;;2.00;99.90;;;;;;6217385;23;20152;-57
2021/01/07 19:58:30;;;;;;;5.20;3.80;;;2.10;99.90;;;;;;6217576;23;20149;-57
2021/01/07 20:00:55;;;;;;;8.10;5.03;;;2.10;99.90;;;;;;6219501;23;20204;-57
2021/01/07 20:03:20;;;;;;;7.05;4.50;;;2.10;99.90;;;;;;6219089;23;20451;-62
2021/01/07 20:05:46;;;;;;;6.85;4.38;;;2.20;99.90;;;;;;6218922;23;20148;-62
2021/01/07 20:08:11;;;;;;;8.30;4.80;;;2.20;99.90;;;;;;6219026;23;20211;-63
2021/01/07 20:10:37;;;;;;;6.70;4.28;;;2.10;99.90;;;;;;6219199;23;20437;-63
2021/01/07 20:13:03;;;;;;;6.28;4.63;;;2.10;99.90;;;;;;6219938;23;20175;-63
2021/01/07 20:15:28;;;;;;;7.68;4.65;;;2.10;99.90;;;;;;6220050;23;20247;-63
2021/01/07 20:17:54;;;;;;;6.18;4.10;;;2.00;99.90;;;;;;6218867;23;20151;-63
2021/01/07 20:20:20;;;;;;;7.97;4.65;;;2.00;99.90;;;;;;6218795;23;20156;-62
2021/01/07 20:22:46;;;;;;;7.80;4.18;;;2.00;99.90;;;;;;6219267;23;20153;-63
2021/01/07 20:25:15;;;;;;;7.05;4.15;;;2.00;99.90;;;;;;6219384;23;20438;-62
2021/01/07 20:27:41;;;;;;;6.72;4.38;;;2.00;99.90;;;;;;6219393;23;20168;-62
2021/01/07 20:30:08;;;;;;;8.25;4.75;;;2.00;99.90;;;;;;6217537;23;20148;-62
2021/01/07 20:32:34;;;;;;;5.93;3.95;;;2.00;99.90;;;;;;6219108;23;20183;-63
2021/01/07 20:35:00;;;;;;;6.82;4.20;;;2.00;99.90;;;;;;6219143;23;20486;-63
2021/01/07 20:37:26;;;;;;;8.73;4.53;;;2.00;99.90;;;;;;6218781;23;20141;-62
2021/01/07 20:39:51;;;;;;;5.95;4.10;;;2.00;99.90;;;;;;6219162;23;20558;-62
2021/01/07 20:42:17;;;;;;;7.82;4.32;;;2.00;99.90;;;;;;6218716;23;20502;-63
2021/01/07 20:44:43;;;;;;;6.15;4.20;;;2.00;99.90;;;;;;6218779;23;20232;-63
2021/01/07 20:47:18;;;;;;;6.57;4.13;;;2.00;99.90;;;;;;6218693;23;20141;-63
2021/01/07 20:49:44;;;;;;;6.22;3.75;;;2.10;99.90;;;;;;6219017;23;20442;-63
2021/01/07 20:52:10;;;;;;;5.35;3.60;;;2.20;99.90;;;;;;6218653;23;20157;-63
2021/01/07 20:54:36;;;;;;;5.32;3.50;;;2.20;99.90;;;;;;6218751;23;20149;-63
2021/01/07 20:57:07;;;;;;;5.55;3.90;;;2.30;99.90;;;;;;6218935;23;20157;-62
2021/01/07 20:59:32;;;;;;;6.30;3.72;;;2.30;99.90;;;;;;6219103;23;20134;-63
2021/01/07 21:01:58;;;;;;;6.05;3.47;;;2.30;99.90;;;;;;6218546;23;20144;-62
2021/01/07 21:04:29;;;;;;;6.85;4.05;;;2.30;99.90;;;;;;6218960;23;20156;-63
2021/01/07 21:06:56;;;;;;;5.20;3.70;;;2.30;99.90;;;;;;6218770;23;20125;-62
2021/01/07 21:09:21;;;;;;;5.78;3.85;;;2.30;99.90;;;;;;6218643;23;20145;-63
2021/01/07 21:11:47;;;;;;;6.50;3.90;;;2.30;99.90;;;;;;6218283;23;20198;-63
2021/01/07 21:14:12;;;;;;;5.13;3.58;;;2.40;99.90;;;;;;6218563;23;20140;-62
2021/01/07 21:16:38;;;;;;;5.97;4.07;;;2.30;99.90;;;;;;6218497;23;20155;-63
2021/01/07 21:19:03;;;;;;;5.55;3.72;;;2.40;99.90;;;;;;6218487;23;20156;-63
2021/01/07 21:21:29;;;;;;;6.50;4.25;;;2.40;99.90;;;;;;6218464;23;20141;-62
2021/01/07 21:23:54;;;;;;;6.30;3.90;;;2.40;99.90;;;;;;6218772;23;20558;-63
2021/01/07 21:26:20;;;;;;;6.30;4.05;;;2.40;99.90;;;;;;6218729;23;20191;-62
2021/01/07 21:28:45;;;;;;;6.43;4.00;;;2.40;99.90;;;;;;6218898;23;20153;-63
2021/01/07 21:31:13;;;;;;;8.38;4.38;;;2.40;99.90;;;;;;6218374;23;20151;-63
2021/01/07 21:33:39;;;;;;;6.35;4.10;;;2.40;99.90;;;;;;6218684;23;20180;-63
2021/01/07 21:36:12;;;;;;;6.53;3.65;;;2.40;99.90;;;;;;6218515;23;20141;-63
2021/01/07 21:38:38;;;;;;;6.50;4.10;;;2.40;99.90;;;;;;6221172;23;20156;-62
2021/01/07 21:41:04;;;;;;;6.35;4.10;;;2.40;99.90;;;;;;6218898;23;20622;-62
2021/01/07 21:43:29;;;;;;;5.75;3.85;;;2.30;99.90;;;;;;6218246;23;20174;-62
2021/01/07 21:45:55;;;;;;;6.40;4.20;;;2.30;99.90;;;;;;6218151;23;20141;-57
2021/01/07 21:48:20;;;;;;;6.60;4.25;;;2.20;99.90;;;;;;6218273;23;20280;-58
2021/01/07 21:50:46;;;;;;;5.38;3.88;;;2.30;99.90;;;;;;6218494;23;20145;-57
2021/01/07 21:53:11;;;;;;;5.97;4.20;;;2.20;99.90;;;;;;6217996;23;20165;-57
2021/01/07 21:55:37;;;;;;;6.13;4.15;;;2.20;99.90;;;;;;6218478;23;20141;-57
2021/01/07 21:58:03;;;;;;;5.47;4.25;;;2.20;99.90;;;;;;6217972;23;20141;-57
2021/01/07 22:00:29;;;;;;;5.97;4.13;;;2.20;99.90;;;;;;6218401;23;20152;-57
2021/01/07 22:02:54;;;;;;;5.68;3.65;;;2.20;99.90;;;;;;6218088;23;20141;-57
2021/01/07 22:05:20;;;;;;;5.68;3.85;;;2.10;99.90;;;;;;6218289;23;20164;-58
2021/01/07 22:07:46;;;;;;;6.00;3.65;;;2.10;99.90;;;;;;6218014;23;20565;-57
2021/01/07 22:10:12;;;;;;;5.93;3.85;;;2.10;99.90;;;;;;6216951;23;20223;-57
2021/01/07 22:12:37;;;;;;;5.57;3.75;;;2.10;99.90;;;;;;6219005;23;20172;-57
2021/01/07 22:15:04;;;;;;;5.60;3.50;;;2.00;99.90;;;;;;6219796;23;20151;-57
2021/01/07 22:17:30;;;;;;;5.18;3.60;;;2.00;99.90;;;;;;6219068;23;20149;-57
2021/01/07 22:19:56;;;;;;;5.35;3.58;;;2.00;99.90;;;;;;6220959;23;20206;-57
2021/01/07 22:22:22;;;;;;;5.55;3.50;;;2.00;99.90;;;;;;6222636;23;20496;-57
2021/01/07 22:24:47;;;;;;;7.80;3.88;;;2.00;99.90;;;;;;6218312;23;20172;-57
2021/01/07 22:27:16;;;;;;;4.68;3.42;;;2.00;99.90;;;;;;6217851;23;20156;-57
2021/01/07 22:29:45;;;;;;;5.45;3.60;;;2.00;99.90;;;;;;6218175;23;20144;-57
2021/01/07 22:32:11;;;;;;;6.80;3.90;;;2.00;99.90;;;;;;6217691;23;20574;-57
2021/01/07 22:34:38;;;;;;;4.95;3.67;;;2.00;99.90;;;;;;6218850;23;20147;-57
2021/01/07 22:37:03;;;;;;;4.60;3.15;;;2.00;99.90;;;;;;6217719;23;20425;-57
2021/01/07 22:39:29;;;;;;;4.97;3.25;;;1.90;99.90;;;;;;6218140;23;20145;-57
2021/01/07 22:41:55;;;;;;;4.25;3.30;;;2.00;99.90;;;;;;6217744;23;20144;-57
2021/01/07 22:44:20;;;;;;;4.60;3.10;;;2.00;99.90;;;;;;6218147;23;20160;-57
2021/01/07 22:46:46;;;;;;;5.57;3.28;;;2.00;99.90;;;;;;6217665;23;20170;-57
2021/01/07 22:49:11;;;;;;;5.78;3.50;;;2.00;99.90;;;;;;6217730;23;20414;-57
2021/01/07 22:51:37;;;;;;;5.28;3.33;;;2.00;99.90;;;;;;6217673;23;20144;-57
2021/01/07 22:54:03;;;;;;;5.88;3.50;;;2.00;99.90;;;;;;6217986;23;20607;-57
2021/01/07 22:56:30;;;;;;;6.55;3.13;;;2.00;99.90;;;;;;6218338;23;20149;-56
2021/01/07 22:58:57;;;;;;;4.45;3.10;;;2.00;99.90;;;;;;6217565;23;20172;-57
2021/01/07 23:01:23;;;;;;;4.15;3.05;;;2.00;99.90;;;;;;6218063;23;20441;-56
2021/01/07 23:03:49;;;;;;;8.30;3.60;;;2.00;99.90;;;;;;6217596;23;20148;-58
2021/01/07 23:06:27;;;;;;;5.53;3.20;;;2.10;99.90;;;;;;6217720;23;20564;-58
2021/01/07 23:08:52;;;;;;;3.58;2.67;;;2.10;99.90;;;;;;6217559;23;20148;-56
2021/01/07 23:11:18;;;;;;;4.35;2.88;;;2.10;99.90;;;;;;6217749;23;20141;-57
2021/01/07 23:13:44;;;;;;;4.75;2.97;;;2.20;99.90;;;;;;6217780;23;20251;-57
2021/01/07 23:16:10;;;;;;;4.97;3.00;;;2.20;99.90;;;;;;6218010;23;20144;-58
2021/01/07 23:18:35;;;;;;;4.70;2.90;;;2.20;99.90;;;;;;6217442;23;20144;-58
2021/01/07 23:21:01;;;;;;;3.90;2.67;;;2.20;99.90;;;;;;6217604;23;20439;-58
2021/01/07 23:23:26;;;;;;;3.47;2.63;;;2.30;99.90;;;;;;6217810;23;20145;-58
2021/01/07 23:25:52;;;;;;;3.55;2.50;;;2.30;99.90;;;;;;6217737;23;20149;-58
2021/01/07 23:28:17;;;;;;;2.90;2.35;;;2.30;99.90;;;;;;6217842;23;20147;-57
2021/01/07 23:30:43;;;;;;;3.63;2.67;;;2.40;99.90;;;;;;6217578;23;20145;-58
2021/01/07 23:33:09;;;;;;;3.17;2.10;;;2.40;99.90;;;;;;6217313;23;20168;-58
2021/01/07 23:35:35;;;;;;;3.63;2.33;;;2.50;99.90;;;;;;6219494;23;20415;-58
2021/01/07 23:38:00;;;;;;;3.28;2.58;;;2.50;99.90;;;;;;6219535;23;20165;-58
2021/01/07 23:40:26;;;;;;;3.65;2.63;;;2.50;99.90;;;;;;6219507;23;20145;-58
2021/01/07 23:42:51;;;;;;;3.38;2.28;;;2.50;99.90;;;;;;6219907;23;20155;-58
2021/01/07 23:45:17;;;;;;;2.63;2.22;;;2.50;99.90;;;;;;6219553;23;20156;-57
2021/01/07 23:47:42;;;;;;;3.03;2.30;;;2.50;99.90;;;;;;6219688;23;20447;-58
2021/01/07 23:50:08;;;;;;;3.00;2.42;;;2.50;99.90;;;;;;6220086;23;20215;-58
2021/01/07 23:52:34;;;;;;;2.42;1.88;;;2.50;99.90;;;;;;6219168;23;20183;-58
2021/01/07 23:54:59;;;;;;;3.47;2.20;;;2.50;99.90;;;;;;6219745;23;20137;-58
2021/01/07 23:57:26;;;;;;;2.88;2.10;;;2.50;99.90;;;;;;6219327;23;20144;-58
2021/01/07 23:59:52;;;;;;;2.75;1.98;;;2.50;99.90;;;;;;6219330;23;20426;-58
